Time;durP1;ratioP1;P1;durP2;ratioP2;P2;SDS_P1;SDS_P2;PMS_P1;PMS_P2;Temp;Humidity;BMP_temperature;BMP_pressure;BME280_temperature;BME280_humidity;BME280_pressure;Samples;Min_cycle;Max_cycle;Signal;HPM_P1;HPM_P2
2023/07/04 00:01:47;;;;;;;6.40;5.40;;;538.10;2406.40;;;;;;5072594;28;20510;-76
2023/07/04 00:04:17;;;;;;;11.10;6.05;;;538.20;2406.40;;;;;;5072834;28;20357;-76
2023/07/04 00:06:43;;;;;;;8.38;5.75;;;538.10;2406.40;;;;;;5074290;28;20486;-77
2023/07/04 00:09:09;;;;;;;11.63;5.78;;;538.10;2406.40;;;;;;5072082;28;20045;-75
2023/07/04 00:11:35;;;;;;;11.63;6.70;;;538.10;2406.40;;;;;;5072075;28;20053;-76
2023/07/04 00:14:01;;;;;;;10.07;6.10;;;538.10;2406.40;;;;;;5075844;28;20051;-75
2023/07/04 00:16:27;;;;;;;7.38;5.65;;;538.20;2406.40;;;;;;5076272;28;20125;-75
2023/07/04 00:18:53;;;;;;;8.70;6.53;;;538.20;2406.40;;;;;;5073516;28;20039;-76
2023/07/04 00:21:19;;;;;;;9.43;5.93;;;538.10;2406.40;;;;;;5071776;28;20029;-76
2023/07/04 00:23:52;;;;;;;10.38;6.05;;;538.20;2406.40;;;;;;5071626;28;20020;-75
2023/07/04 00:26:20;;;;;;;7.85;6.13;;;538.20;2406.40;;;;;;5073080;28;20029;-76
2023/07/04 00:28:47;;;;;;;9.07;6.60;;;538.30;2406.40;;;;;;5072731;28;20024;-76
2023/07/04 00:31:15;;;;;;;9.60;6.80;;;538.20;2406.40;;;;;;5091421;28;20031;-76
2023/07/04 00:33:42;;;;;;;9.68;6.85;;;538.20;2406.40;;;;;;5092821;28;20016;-76
2023/07/04 00:36:12;;;;;;;10.13;6.53;;;538.00;2406.40;;;;;;5092407;28;20036;-76
2023/07/04 00:38:40;;;;;;;7.03;5.68;;;538.00;2406.40;;;;;;5093078;28;20020;-75
2023/07/04 00:41:09;;;;;;;7.95;5.57;;;538.00;2406.40;;;;;;5093148;28;20057;-76
2023/07/04 00:44:00;;;;;;;10.65;6.88;;;538.00;2406.40;;;;;;5092888;28;20059;-78
2023/07/04 00:46:37;;;;;;;8.75;5.35;;;538.20;2406.40;;;;;;5091399;28;20061;-77
2023/07/04 00:49:18;;;;;;;8.07;5.65;;;538.20;2406.40;;;;;;5093071;28;20031;-78
2023/07/04 00:52:01;;;;;;;8.70;6.10;;;538.00;2406.40;;;;;;5091330;28;20024;-76
2023/07/04 00:54:37;;;;;;;8.82;5.75;;;538.00;2406.40;;;;;;5091578;28;20357;-78
2023/07/04 00:57:06;;;;;;;7.68;5.63;;;538.00;2406.40;;;;;;5092574;28;20132;-76
2023/07/04 00:59:38;;;;;;;6.82;5.53;;;538.10;2406.40;;;;;;5093057;28;20024;-78
2023/07/04 01:02:05;;;;;;;9.35;6.28;;;538.00;2406.40;;;;;;5091462;28;20032;-78
2023/07/04 01:04:32;;;;;;;8.07;5.63;;;538.20;2406.40;;;;;;5091255;28;20488;-77
2023/07/04 01:07:37;;;;;;;8.50;5.93;;;538.10;2406.40;;;;;;5091398;28;20024;-76
2023/07/04 01:10:10;;;;;;;8.63;5.68;;;538.00;2406.40;;;;;;5024759;28;1270067;-77
2023/07/04 01:12:36;;;;;;;;;;;538.00;2406.40;;;;;;5093737;28;20031;-76
2023/07/04 01:15:02;;;;;;;9.60;5.20;;;538.10;2406.40;;;;;;5092073;28;19916;-77
2023/07/04 01:17:30;;;;;;;7.43;5.72;;;538.00;2406.40;;;;;;5092179;28;20073;-78
2023/07/04 01:19:56;;;;;;;8.38;5.53;;;537.90;2406.40;;;;;;5091935;28;20031;-78
2023/07/04 01:22:34;;;;;;;6.38;5.22;;;537.90;2406.40;;;;;;5092343;28;20077;-77
2023/07/04 01:25:12;;;;;;;8.07;5.68;;;537.60;2406.40;;;;;;5091892;28;20078;-77
2023/07/04 01:27:41;;;;;;;10.23;5.72;;;537.60;2406.40;;;;;;5092283;28;20028;-77
2023/07/04 01:30:08;;;;;;;11.73;5.43;;;512.90;2380.80;;;;;;5092170;28;20077;-77
2023/07/04 01:32:35;;;;;;;15.95;6.07;;;512.80;2380.80;;;;;;5091897;28;20028;-77
2023/07/04 01:35:02;;;;;;;8.50;6.03;;;512.80;2380.80;;;;;;5092104;28;20035;-77
2023/07/04 01:37:32;;;;;;;11.23;5.80;;;512.70;2380.80;;;;;;5093424;28;20357;-77
2023/07/04 01:39:58;;;;;;;8.60;5.57;;;512.60;2380.80;;;;;;5091647;28;20190;-76
2023/07/04 01:42:31;;;;;;;9.90;5.75;;;512.40;2380.80;;;;;;5092306;28;20039;-77
2023/07/04 01:45:07;;;;;;;7.97;5.72;;;512.30;2380.80;;;;;;5097512;28;20028;-76
2023/07/04 01:47:35;;;;;;;16.70;6.95;;;512.40;2380.80;;;;;;5096890;28;20024;-76
2023/07/04 01:50:02;;;;;;;9.82;5.88;;;512.30;2380.80;;;;;;5095759;28;20040;-78
2023/07/04 01:52:28;;;;;;;8.15;5.95;;;512.30;2380.80;;;;;;5095811;28;20028;-78
2023/07/04 01:54:55;;;;;;;10.60;5.60;;;512.50;2380.80;;;;;;5096672;28;20483;-77
2023/07/04 01:57:20;;;;;;;8.55;5.85;;;512.90;2380.80;;;;;;5095636;28;20024;-77
2023/07/04 01:59:46;;;;;;;7.07;5.25;;;512.50;2380.80;;;;;;5095279;28;20145;-76
2023/07/04 02:02:12;;;;;;;8.43;6.00;;;512.50;2380.80;;;;;;5095665;28;20093;-78
2023/07/04 02:04:38;;;;;;;8.52;5.45;;;512.70;2380.80;;;;;;5095541;28;20028;-78
2023/07/04 02:07:04;;;;;;;6.60;5.55;;;512.70;2380.80;;;;;;5102532;28;20115;-75
2023/07/04 02:09:30;;;;;;;8.52;5.55;;;512.50;2380.80;;;;;;5106971;28;20048;-79
2023/07/04 02:11:56;;;;;;;10.35;6.47;;;512.50;2380.80;;;;;;5095293;28;20047;-78
2023/07/04 02:14:21;;;;;;;6.80;5.53;;;512.50;2380.80;;;;;;5094888;28;20069;-78
2023/07/04 02:16:49;;;;;;;9.52;5.30;;;512.50;2380.80;;;;;;5095083;28;20132;-77
2023/07/04 02:19:15;;;;;;;7.05;5.03;;;512.70;2380.80;;;;;;5096419;28;20024;-78
2023/07/04 02:21:41;;;;;;;6.70;5.55;;;512.70;2380.80;;;;;;5094739;28;20024;-77
2023/07/04 02:24:07;;;;;;;10.02;5.47;;;512.80;2380.80;;;;;;5095104;28;20101;-76
2023/07/04 02:26:33;;;;;;;10.18;5.70;;;512.80;2380.80;;;;;;5094976;28;20383;-77
2023/07/04 02:28:59;;;;;;;9.88;5.50;;;512.90;2380.80;;;;;;5095962;28;20020;-76
2023/07/04 02:31:25;;;;;;;7.68;5.25;;;512.90;2380.80;;;;;;5094982;28;20099;-77
2023/07/04 02:33:51;;;;;;;8.30;5.82;;;537.60;2406.40;;;;;;5094910;28;20024;-77
2023/07/04 02:36:18;;;;;;;8.02;5.90;;;512.90;2380.80;;;;;;5094548;28;20704;-77
2023/07/04 02:38:44;;;;;;;9.85;6.32;;;512.70;2380.80;;;;;;5094773;28;20031;-77
2023/07/04 02:41:10;;;;;;;10.35;7.13;;;512.20;2380.80;;;;;;5095962;28;20103;-76
2023/07/04 02:43:37;;;;;;;12.27;6.45;;;512.00;2380.80;;;;;;5094401;28;20081;-78
2023/07/04 02:46:04;;;;;;;6.88;6.10;;;512.20;2380.80;;;;;;5094706;28;20120;-77
2023/07/04 02:48:31;;;;;;;9.55;7.05;;;512.20;2380.80;;;;;;5096224;28;20327;-78
2023/07/04 02:50:57;;;;;;;10.18;6.18;;;512.30;2380.80;;;;;;5094324;28;20488;-77
2023/07/04 02:53:23;;;;;;;8.57;6.20;;;512.40;2380.80;;;;;;5094349;28;20046;-77
2023/07/04 02:55:50;;;;;;;12.93;6.10;;;512.30;2380.80;;;;;;5080340;28;20037;-78
2023/07/04 02:58:16;;;;;;;9.90;6.07;;;512.40;2380.80;;;;;;5073622;28;20078;-76
2023/07/04 03:00:42;;;;;;;13.70;6.20;;;512.30;2380.80;;;;;;5076145;28;20021;-77
2023/07/04 03:03:08;;;;;;;9.77;5.93;;;512.50;2380.80;;;;;;5075193;28;20032;-78
2023/07/04 03:05:37;;;;;;;10.70;6.85;;;512.20;2380.80;;;;;;5074014;28;20051;-78
2023/07/04 03:08:04;;;;;;;11.68;6.82;;;512.00;2380.80;;;;;;5075188;28;20090;-79
2023/07/04 03:10:30;;;;;;;10.23;6.78;;;512.10;2380.80;;;;;;5073936;28;20029;-78
2023/07/04 03:12:56;;;;;;;7.95;5.97;;;512.30;2380.80;;;;;;5075026;28;20028;-79
2023/07/04 03:15:22;;;;;;;12.07;6.85;;;512.20;2380.80;;;;;;5074822;28;20025;-76
2023/07/04 03:17:48;;;;;;;8.85;5.97;;;512.30;2380.80;;;;;;5074545;28;20035;-77
2023/07/04 03:20:15;;;;;;;9.90;6.45;;;512.40;2380.80;;;;;;5073725;28;20024;-78
2023/07/04 03:22:42;;;;;;;11.63;6.72;;;512.50;2380.80;;;;;;5073597;28;20020;-78
2023/07/04 03:25:09;;;;;;;13.52;6.72;;;512.50;2380.80;;;;;;5073370;28;20090;-77
2023/07/04 03:27:38;;;;;;;8.52;6.70;;;512.60;2380.80;;;;;;5073708;28;20028;-77
2023/07/04 03:30:05;;;;;;;10.02;6.35;;;512.50;2380.80;;;;;;5073618;28;20548;-77
2023/07/04 03:32:31;;;;;;;8.73;6.28;;;512.60;2380.80;;;;;;5074646;28;20024;-78
2023/07/04 03:35:01;;;;;;;9.80;6.68;;;512.50;2380.80;;;;;;5073520;28;20042;-78
2023/07/04 03:37:37;;;;;;;10.95;6.43;;;512.60;2380.80;;;;;;5073356;28;20024;-78
2023/07/04 03:40:07;;;;;;;7.78;6.07;;;512.60;2380.80;;;;;;5073470;28;20365;-79
2023/07/04 03:42:34;;;;;;;9.15;6.43;;;512.50;2380.80;;;;;;5073329;28;20056;-77
2023/07/04 03:45:00;;;;;;;9.48;6.88;;;512.30;2380.80;;;;;;5073156;28;20376;-79
2023/07/04 03:47:26;;;;;;;10.55;7.60;;;512.40;2380.80;;;;;;5073203;28;20082;-79
2023/07/04 03:49:52;;;;;;;10.93;6.78;;;512.10;2380.80;;;;;;5074683;28;20508;-79
2023/07/04 03:52:18;;;;;;;10.30;5.95;;;512.10;2380.80;;;;;;5072968;28;20067;-80
2023/07/04 03:54:44;;;;;;;10.73;6.15;;;487.30;2380.80;;;;;;5073148;28;20627;-78
2023/07/04 03:57:09;;;;;;;10.70;6.57;;;512.10;2380.80;;;;;;5073112;28;20032;-78
2023/07/04 03:59:36;;;;;;;9.90;6.43;;;512.10;2380.80;;;;;;5072733;28;20027;-78
2023/07/04 04:02:01;;;;;;;9.85;6.70;;;487.10;2380.80;;;;;;5083231;28;20032;-78
2023/07/04 04:04:27;;;;;;;8.85;5.47;;;512.10;2380.80;;;;;;5076321;28;20583;-81
2023/07/04 04:06:56;;;;;;;12.50;7.07;;;512.10;2380.80;;;;;;5072415;28;20028;-78
2023/07/04 04:09:23;;;;;;;13.68;6.38;;;487.30;2380.80;;;;;;5072273;28;20110;-78
2023/07/04 04:11:50;;;;;;;9.43;6.30;;;487.20;2380.80;;;;;;5073983;28;20103;-78
2023/07/04 04:14:16;;;;;;;12.68;7.00;;;487.30;2380.80;;;;;;5072463;28;20075;-80
2023/07/04 04:16:42;;;;;;;10.77;5.95;;;487.30;2380.80;;;;;;5072628;28;20143;-80
2023/07/04 04:19:08;;;;;;;11.07;6.68;;;512.10;2380.80;;;;;;5072788;28;20504;-80
2023/07/04 04:21:34;;;;;;;8.80;6.50;;;512.00;2380.80;;;;;;5073343;28;20028;-78
2023/07/04 04:23:59;;;;;;;11.00;6.57;;;512.00;2380.80;;;;;;5073753;28;20025;-79
2023/07/04 04:26:25;;;;;;;11.60;6.38;;;512.20;2380.80;;;;;;5072525;28;20476;-80
2023/07/04 04:28:53;;;;;;;16.50;6.85;;;512.30;2380.80;;;;;;5073699;28;20032;-80
2023/07/04 04:31:19;;;;;;;10.82;6.80;;;512.10;2380.80;;;;;;5073762;28;20024;-78
2023/07/04 04:33:45;;;;;;;10.80;6.90;;;512.10;2380.80;;;;;;5072291;28;20369;-79
2023/07/04 04:36:10;;;;;;;9.10;7.30;;;512.20;2380.80;;;;;;5072326;28;20032;-79
2023/07/04 04:38:36;;;;;;;12.27;6.25;;;512.00;2380.80;;;;;;5072480;28;20081;-79
2023/07/04 04:41:06;;;;;;;9.57;6.70;;;512.10;2380.80;;;;;;5072281;28;20032;-80
2023/07/04 04:43:32;;;;;;;9.02;6.28;;;512.20;2380.80;;;;;;5073648;28;20099;-79
2023/07/04 04:46:00;;;;;;;9.45;6.45;;;512.20;2380.80;;;;;;5072306;28;20028;-79
2023/07/04 04:48:29;;;;;;;14.35;6.55;;;512.10;2380.80;;;;;;5072173;28;20024;-79
2023/07/04 04:51:07;;;;;;;11.82;7.00;;;512.10;2380.80;;;;;;5072398;28;20028;-79
2023/07/04 04:53:36;;;;;;;15.35;7.00;;;512.30;2380.80;;;;;;5073961;28;20063;-78
2023/07/04 04:56:04;;;;;;;14.50;7.93;;;512.30;2380.80;;;;;;5081363;28;20477;-77
2023/07/04 04:58:30;;;;;;;12.27;8.18;;;512.30;2380.80;;;;;;5077982;28;20024;-79
2023/07/04 05:00:56;;;;;;;10.82;8.25;;;512.20;2380.80;;;;;;5072059;28;20024;-79
2023/07/04 05:03:21;;;;;;;10.95;7.43;;;512.30;2380.80;;;;;;5071939;28;20425;-79
2023/07/04 05:05:47;;;;;;;8.63;7.25;;;512.40;2380.80;;;;;;5073432;28;20108;-81
2023/07/04 05:08:13;;;;;;;13.70;8.00;;;512.50;2380.80;;;;;;5072060;28;20080;-79
2023/07/04 05:10:39;;;;;;;12.10;8.23;;;512.50;2380.80;;;;;;5071917;28;20032;-79
2023/07/04 05:13:05;;;;;;;20.13;10.00;;;512.50;2380.80;;;;;;5072103;28;20513;-79
2023/07/04 05:15:31;;;;;;;14.10;7.82;;;512.60;2380.80;;;;;;5071866;28;20033;-80
2023/07/04 05:17:57;;;;;;;12.07;8.02;;;512.40;2380.80;;;;;;5073328;28;20029;-79
2023/07/04 05:20:24;;;;;;;13.55;8.70;;;512.80;2380.80;;;;;;5076066;28;20021;-78
2023/07/04 05:22:53;;;;;;;15.13;7.13;;;512.90;2380.80;;;;;;5075607;28;20028;-80
2023/07/04 05:25:19;;;;;;;12.48;7.25;;;537.60;2406.40;;;;;;5075888;28;20032;-80
2023/07/04 05:27:45;;;;;;;13.70;7.22;;;537.70;2406.40;;;;;;5077415;28;20471;-79
2023/07/04 05:30:11;;;;;;;9.77;6.60;;;537.90;2406.40;;;;;;5076766;28;20464;-78
2023/07/04 05:32:37;;;;;;;8.10;6.00;;;537.90;2406.40;;;;;;5075755;28;20024;-77
2023/07/04 05:35:03;;;;;;;7.70;6.32;;;538.00;2406.40;;;;;;5075616;28;20039;-78
2023/07/04 05:37:30;;;;;;;9.15;5.88;;;538.10;2406.40;;;;;;5075318;28;20029;-78
2023/07/04 05:39:57;;;;;;;8.35;5.43;;;538.20;2406.40;;;;;;5075564;28;20070;-78
2023/07/04 05:42:24;;;;;;;10.35;6.30;;;538.40;2406.40;;;;;;5076786;28;20052;-78
2023/07/04 05:44:50;;;;;;;12.43;5.78;;;538.50;2406.40;;;;;;5075174;28;20032;-78
2023/07/04 05:47:16;;;;;;;9.95;5.88;;;563.20;2432.00;;;;;;5075502;28;20029;-77
2023/07/04 05:49:42;;;;;;;8.50;5.60;;;563.30;2432.00;;;;;;5075489;28;20120;-77
2023/07/04 05:52:07;;;;;;;7.40;5.65;;;563.30;2432.00;;;;;;5078743;28;20029;-75
2023/07/04 05:54:33;;;;;;;9.68;5.13;;;563.40;2432.00;;;;;;5079144;28;20472;-75
2023/07/04 05:56:59;;;;;;;11.50;5.30;;;563.60;2432.00;;;;;;5079284;28;20059;-75
2023/07/04 05:59:25;;;;;;;8.75;5.18;;;563.70;2432.00;;;;;;5079729;28;20031;-75
2023/07/04 06:01:51;;;;;;;7.50;5.63;;;564.00;2432.00;;;;;;5078752;28;20115;-75
2023/07/04 06:04:17;;;;;;;8.75;6.60;;;564.10;2432.00;;;;;;5079346;28;20025;-77
2023/07/04 06:06:51;;;;;;;10.45;5.97;;;588.80;2432.00;;;;;;5077139;28;20033;-77
2023/07/04 06:09:18;;;;;;;8.57;5.50;;;588.80;2432.00;;;;;;5074865;28;20076;-78
2023/07/04 06:11:46;;;;;;;10.18;5.22;;;588.90;2432.00;;;;;;5075731;28;20647;-77
2023/07/04 06:14:26;;;;;;;8.90;6.07;;;589.00;2432.00;;;;;;5075110;28;20059;-76
2023/07/04 06:16:55;;;;;;;9.60;7.35;;;589.00;2432.00;;;;;;5074982;28;20032;-77
2023/07/04 06:19:21;;;;;;;9.88;5.95;;;589.20;2432.00;;;;;;5074728;28;20028;-79
2023/07/04 06:21:47;;;;;;;7.95;5.50;;;589.30;2432.00;;;;;;5074797;28;20074;-78
2023/07/04 06:24:15;;;;;;;7.97;5.65;;;589.40;2432.00;;;;;;5074824;28;20120;-77
2023/07/04 06:26:41;;;;;;;7.65;5.22;;;589.50;2432.00;;;;;;5075752;28;20508;-80
2023/07/04 06:29:07;;;;;;;8.52;6.13;;;589.70;2432.00;;;;;;5074631;28;20120;-80
2023/07/04 06:31:32;;;;;;;8.23;5.10;;;614.40;2432.00;;;;;;5074699;28;20484;-79
2023/07/04 06:34:00;;;;;;;10.40;5.88;;;614.60;2432.00;;;;;;5074511;28;20056;-80
2023/07/04 06:36:25;;;;;;;9.68;5.78;;;614.60;2432.00;;;;;;5074599;28;20507;-80
2023/07/04 06:38:51;;;;;;;11.52;5.35;;;614.60;2432.00;;;;;;5074503;28;20060;-80
2023/07/04 06:41:17;;;;;;;7.93;5.07;;;614.60;2432.00;;;;;;5075165;28;20024;-79
2023/07/04 06:43:45;;;;;;;8.20;5.88;;;614.50;2432.00;;;;;;5076074;28;20072;-80
2023/07/04 06:46:13;;;;;;;9.70;4.95;;;614.70;2432.00;;;;;;5074473;28;20461;-80
2023/07/04 06:48:39;;;;;;;6.97;5.03;;;614.90;2432.00;;;;;;5075682;28;20082;-79
2023/07/04 06:51:12;;;;;;;7.63;5.18;;;614.90;2432.00;;;;;;5073952;28;20029;-80
2023/07/04 06:53:38;;;;;;;8.50;5.10;;;615.20;2432.00;;;;;;5074096;28;20031;-81
2023/07/04 06:56:07;;;;;;;9.93;5.38;;;615.30;2432.00;;;;;;5072403;28;20032;-80
2023/07/04 06:58:34;;;;;;;8.13;5.07;;;615.10;2432.00;;;;;;5089330;28;20048;-81
2023/07/04 07:01:02;;;;;;;12.02;5.95;;;615.10;2432.00;;;;;;5090689;28;20029;-80
2023/07/04 07:03:29;;;;;;;7.20;5.22;;;615.30;2432.00;;;;;;5074764;28;20025;-79
2023/07/04 07:05:54;;;;;;;9.98;5.70;;;615.30;2432.00;;;;;;5073679;28;20037;-81
2023/07/04 07:08:20;;;;;;;8.55;4.47;;;640.10;2432.00;;;;;;5073460;28;20052;-80
2023/07/04 07:10:55;;;;;;;9.40;5.10;;;640.30;2432.00;;;;;;5074152;28;20074;-80
2023/07/04 07:13:21;;;;;;;13.38;5.05;;;640.10;2432.00;;;;;;5086845;28;20490;-80
2023/07/04 07:15:47;;;;;;;8.85;4.68;;;640.00;2432.00;;;;;;5093227;28;20036;-81
2023/07/04 07:18:13;;;;;;;7.38;5.25;;;640.60;2432.00;;;;;;5094050;28;20031;-79
2023/07/04 07:20:39;;;;;;;7.03;4.85;;;640.90;2432.00;;;;;;5093938;28;20032;-79
2023/07/04 07:23:04;;;;;;;9.85;4.85;;;665.60;2432.00;;;;;;5093497;28;20035;-79
2023/07/04 07:25:30;;;;;;;8.48;4.82;;;640.90;2432.00;;;;;;5094944;28;20480;-81
2023/07/04 07:27:56;;;;;;;8.50;5.45;;;665.70;2432.00;;;;;;5093862;28;20081;-79
2023/07/04 07:30:22;;;;;;;10.88;5.70;;;665.90;2432.00;;;;;;5095080;28;20055;-79
2023/07/04 07:32:47;;;;;;;11.13;4.93;;;665.90;2432.00;;;;;;5093815;28;20052;-80
2023/07/04 07:35:13;;;;;;;6.68;4.70;;;665.90;2432.00;;;;;;5093651;28;20035;-81
2023/07/04 07:37:39;;;;;;;8.82;4.63;;;666.20;2432.00;;;;;;5093267;28;20065;-79
2023/07/04 07:40:05;;;;;;;9.30;5.70;;;666.30;2432.00;;;;;;5093092;28;20463;-80
2023/07/04 07:42:32;;;;;;;6.82;4.75;;;666.40;2432.00;;;;;;5094253;28;20031;-77
2023/07/04 07:44:58;;;;;;;7.55;4.43;;;666.50;2432.00;;;;;;5093541;28;20494;-77
2023/07/04 07:47:24;;;;;;;7.78;4.95;;;691.20;2432.00;;;;;;5102337;28;20028;-77
2023/07/04 07:49:50;;;;;;;9.07;4.88;;;691.30;2432.00;;;;;;5099776;28;20345;-79
2023/07/04 07:52:16;;;;;;;7.55;4.53;;;691.30;2432.00;;;;;;5093342;28;20027;-79
2023/07/04 07:54:41;;;;;;;8.30;4.30;;;691.40;2432.00;;;;;;5093647;28;20020;-80
2023/07/04 07:57:07;;;;;;;12.30;7.57;;;691.30;2432.00;;;;;;5092980;28;20126;-80
2023/07/04 07:59:33;;;;;;;14.43;7.00;;;691.60;2432.00;;;;;;5093369;28;20028;-81
2023/07/04 08:01:59;;;;;;;7.78;5.72;;;691.70;2432.00;;;;;;5093134;28;20031;-80
2023/07/04 08:04:25;;;;;;;12.32;7.13;;;691.90;2432.00;;;;;;5092993;28;20063;-80
2023/07/04 08:06:51;;;;;;;9.15;6.80;;;691.60;2432.00;;;;;;5093173;28;20376;-81
2023/07/04 08:09:19;;;;;;;12.48;6.80;;;691.90;2432.00;;;;;;5093019;28;20052;-80
2023/07/04 08:11:46;;;;;;;8.52;5.90;;;691.90;2432.00;;;;;;5092982;28;20085;-81
2023/07/04 08:14:15;;;;;;;11.85;6.47;;;716.80;2432.00;;;;;;5092920;28;20054;-80
2023/07/04 08:16:47;;;;;;;6.95;5.03;;;716.80;2432.00;;;;;;5091154;28;20064;-81
2023/07/04 08:19:15;;;;;;;9.75;5.35;;;692.00;2432.00;;;;;;5092054;28;20031;-81
2023/07/04 08:21:41;;;;;;;7.97;5.78;;;716.80;2432.00;;;;;;5094651;28;20039;-82
2023/07/04 08:24:10;;;;;;;16.85;6.13;;;717.00;2432.00;;;;;;5093417;28;20042;-81
2023/07/04 08:26:38;;;;;;;14.55;9.30;;;717.20;2432.00;;;;;;5087300;28;20038;-81
2023/07/04 08:29:05;;;;;;;13.32;7.88;;;717.20;2432.00;;;;;;5093851;28;20491;-80
2023/07/04 08:31:33;;;;;;;8.60;5.15;;;717.40;2432.00;;;;;;5091089;28;20020;-79
2023/07/04 08:33:59;;;;;;;8.23;5.75;;;717.40;2432.00;;;;;;5093056;28;20016;-80
2023/07/04 08:36:25;;;;;;;9.38;4.95;;;717.50;2432.00;;;;;;5091875;28;20040;-80
2023/07/04 08:38:51;;;;;;;8.90;6.68;;;717.20;2432.00;;;;;;5091700;28;20084;-80
2023/07/04 08:41:30;;;;;;;10.75;5.10;;;717.40;2432.00;;;;;;5089417;28;20035;-81
2023/07/04 08:44:05;;;;;;;8.40;5.55;;;717.70;2432.00;;;;;;5091798;28;20024;-80
2023/07/04 08:46:40;;;;;;;12.90;8.05;;;742.50;2432.00;;;;;;5092165;28;20044;-81
2023/07/04 08:49:27;;;;;;;8.60;4.95;;;742.80;2432.00;;;;;;5093390;28;20073;-81
2023/07/04 08:52:02;;;;;;;11.75;8.00;;;742.50;2432.00;;;;;;5091577;28;20032;-80
2023/07/04 08:54:28;;;;;;;13.15;6.40;;;742.70;2432.00;;;;;;5091080;28;20031;-82
2023/07/04 08:56:59;;;;;;;13.63;7.22;;;742.90;2432.00;;;;;;5091837;28;20039;-81
2023/07/04 08:59:37;;;;;;;13.15;7.65;;;743.10;2432.00;;;;;;5074362;28;20035;-81
2023/07/04 09:02:44;;;;;;;9.65;5.68;;;743.20;2432.00;;;;;;5073712;28;20368;-81
2023/07/04 09:05:29;;;;;;;7.63;6.82;;;743.20;2432.00;;;;;;5072144;28;20109;-81
2023/07/04 09:08:27;;;;;;;8.50;5.78;;;768.10;2432.00;;;;;;5071914;28;20452;-82
2023/07/04 09:10:59;;;;;;;11.32;6.90;;;768.30;2432.00;;;;;;5071982;28;20033;-81
2023/07/04 09:13:31;;;;;;;7.57;4.75;;;768.50;2432.00;;;;;;5083995;28;20028;-84
2023/07/04 09:15:58;;;;;;;8.52;5.60;;;;;;;;;;5092384;28;20493;-83
2023/07/04 09:18:37;;;;;;;7.68;5.25;;;;;;;;;;5092729;28;20020;-84
2023/07/04 09:21:19;;;;;;;6.82;5.68;;;768.90;2432.00;;;;;;5092548;28;20078;-84
2023/07/04 09:23:46;;;;;;;6.10;4.57;;;;;;;;;;5092416;28;20126;-85
2023/07/04 09:26:13;;;;;;;7.32;5.07;;;;;;;;;;5092639;28;20604;-84
2023/07/04 09:28:41;;;;;;;10.05;4.85;;;;;;;;;;5092355;28;20475;-84
2023/07/04 09:31:11;;;;;;;5.80;4.60;;;;;;;;;;5093942;28;20027;-85
2023/07/04 09:33:37;;;;;;;12.40;8.18;;;793.70;2380.80;;;;;;5093859;28;20020;-84
2023/07/04 09:36:04;;;;;;;8.90;7.10;;;;;;;;;;5093619;28;20043;-84
2023/07/04 09:38:50;;;;;;;10.68;5.20;;;;;;;;;;5092219;28;20020;-84
2023/07/04 09:41:17;;;;;;;6.57;5.10;;;;;;;;;;5089122;28;20468;-82
2023/07/04 09:43:44;;;;;;;9.93;6.95;;;;;;;;;;5073110;28;20021;-80
2023/07/04 09:46:30;;;;;;;9.23;6.15;;;;;;;;;;5088753;28;20029;-81
2023/07/04 09:49:16;;;;;;;5.68;4.50;;;;;;;;;;5070884;28;20453;-83
2023/07/04 09:51:42;;;;;;;6.47;3.95;;;;;;;;;;5088511;28;20384;-81
2023/07/04 09:54:09;;;;;;;7.18;5.30;;;;;;;;;;5088540;28;20465;-80
2023/07/04 09:56:36;;;;;;;7.80;4.70;;;;;;;;;;5088247;28;20547;-85
2023/07/04 09:59:11;;;;;;;6.47;4.10;;;;;;;;;;5088641;28;20097;-80
2023/07/04 10:01:42;;;;;;;11.25;5.90;;;;;;;;;;5094307;28;20024;-81
2023/07/04 10:04:09;;;;;;;8.60;4.40;;;;;;;;;;5092992;28;20594;-83
2023/07/04 10:06:38;;;;;;;7.05;5.20;;;;;;;;;;5095329;28;20050;-80
2023/07/04 10:09:15;;;;;;;7.85;5.95;;;;;;;;;;5095151;28;20079;-81
2023/07/04 10:11:42;;;;;;;6.35;4.15;;;;;;;;;;5094288;28;20017;-81
2023/07/04 10:14:09;;;;;;;7.03;3.80;;;;;;;;;;5094297;28;20020;-81
2023/07/04 10:16:37;;;;;;;6.70;3.83;;;;;;;;;;5095624;28;20038;-82
2023/07/04 10:19:04;;;;;;;6.15;3.80;;;;;;;;;;5095356;28;20012;-84
2023/07/04 10:21:31;;;;;;;7.18;4.13;;;;;;;;;;5095404;28;20028;-84
2023/07/04 10:23:59;;;;;;;8.27;4.55;;;;;;;;;;5094919;28;20084;-81
2023/07/04 10:26:25;;;;;;;7.25;4.85;;;;;;;;;;5094956;28;20035;-80
2023/07/04 10:28:52;;;;;;;8.38;4.20;;;;;;;;;;5095098;28;20039;-80
2023/07/04 10:31:21;;;;;;;7.30;4.05;;;;;;;;;;5094681;28;20456;-80
2023/07/04 10:33:50;;;;;;;6.65;3.95;;;;;;;;;;5095985;28;20491;-81
2023/07/04 10:36:21;;;;;;;10.60;5.05;;;;;;;;;;5095055;28;20032;-80
2023/07/04 10:38:49;;;;;;;6.38;3.88;;;;;;;;;;5094966;28;20153;-82
2023/07/04 10:41:19;;;;;;;8.82;4.20;;;;;;;;;;5095831;28;20020;-81
2023/07/04 10:43:48;;;;;;;6.68;3.70;;;;;;;;;;5094794;28;20503;-80
2023/07/04 10:46:16;;;;;;;5.95;3.85;;;;;;;;;;5094598;28;20055;-83
2023/07/04 10:48:45;;;;;;;7.15;4.50;;;;;;;;;;5095271;28;20353;-81
2023/07/04 10:51:19;;;;;;;5.45;4.03;;;;;;;;;;5094925;28;20021;-81
2023/07/04 10:53:45;;;;;;;10.15;4.10;;;;;;;;;;5095619;28;20032;-82
2023/07/04 10:56:16;;;;;;;7.43;4.05;;;;;;;;;;5094496;28;20395;-83
2023/07/04 10:58:44;;;;;;;7.22;5.00;;;;;;;;;;5095298;28;20464;-83
2023/07/04 11:01:14;;;;;;;8.82;5.15;;;845.50;2227.20;;;;;;5094566;28;20118;-80
2023/07/04 11:03:53;;;;;;;6.73;4.43;;;845.70;2201.60;;;;;;5094610;28;20379;-80
2023/07/04 11:06:37;;;;;;;7.45;5.15;;;845.70;2201.60;;;;;;5108929;28;20023;-78
2023/07/04 11:09:06;;;;;;;9.90;5.13;;;845.70;2201.60;;;;;;5105675;28;20053;-80
2023/07/04 11:11:33;;;;;;;6.30;4.20;;;870.50;2176.00;;;;;;5095526;28;20024;-79
2023/07/04 11:14:06;;;;;;;6.32;4.45;;;870.90;2124.80;;;;;;5093851;28;20115;-82
2023/07/04 11:16:39;;;;;;;5.90;3.78;;;870.90;2124.80;;;;;;5094526;28;20028;-80
2023/07/04 11:19:07;;;;;;;5.63;4.13;;;;;;;;;;5094217;28;20051;-83
2023/07/04 11:21:34;;;;;;;5.60;4.57;;;;;;;;;;5095474;28;20441;-83
2023/07/04 11:24:18;;;;;;;8.18;4.18;;;871.30;2124.80;;;;;;5094075;28;20031;-82
2023/07/04 11:26:50;;;;;;;4.70;3.55;;;;;;;;;;5094747;28;20528;-83
2023/07/04 11:29:16;;;;;;;;;;;;;;;;;;5094428;28;20074;-82
2023/07/04 11:32:17;;;;;;;5.53;3.47;;;;;;;;;;5094098;28;19904;-82
2023/07/04 11:35:01;;;;;;;6.65;3.80;;;;;;;;;;5055634;28;20016;-82
2023/07/04 11:37:37;;;;;;;5.03;3.85;;;;;;;;;;5055870;28;20033;-82
2023/07/04 11:40:12;;;;;;;6.80;3.72;;;;;;;;;;5055661;28;20035;-81
2023/07/04 11:42:44;;;;;;;6.72;3.63;;;;;;;;;;5055511;28;20527;-82
2023/07/04 11:45:14;;;;;;;4.90;3.75;;;;;;;;;;5055440;28;20024;-82
2023/07/04 11:47:45;;;;;;;10.60;4.38;;;;;;;;;;5055611;28;20016;-80
2023/07/04 11:50:13;;;;;;;5.65;3.60;;;;;;;;;;5055581;28;20119;-81
2023/07/04 11:52:42;;;;;;;5.50;4.07;;;871.30;2073.60;;;;;;5055526;28;20540;-82
2023/07/04 11:55:17;;;;;;;4.30;3.40;;;896.20;2048.00;;;;;;5055040;28;20040;-82
2023/07/04 11:58:15;;;;;;;5.95;3.30;;;896.30;2048.00;;;;;;5054340;28;20447;-81
2023/07/04 12:00:43;;;;;;;5.18;3.60;;;;;;;;;;5055568;28;20020;-82
2023/07/04 12:03:19;;;;;;;6.07;3.22;;;896.30;2048.00;;;;;;5071874;28;20033;-82
2023/07/04 12:05:48;;;;;;;4.35;3.28;;;896.20;2022.40;;;;;;5071795;28;20028;-82
2023/07/04 12:08:23;;;;;;;7.32;3.83;;;896.70;2022.40;;;;;;5072476;28;20040;-80
2023/07/04 12:10:50;;;;;;;8.95;3.30;;;896.70;2022.40;;;;;;5089476;28;20056;-82
2023/07/04 12:13:20;;;;;;;5.57;3.28;;;921.60;2022.40;;;;;;5074198;28;20185;-81
2023/07/04 12:15:51;;;;;;;7.80;3.40;;;896.50;1996.80;;;;;;5073845;28;20153;-81
2023/07/04 12:18:24;;;;;;;5.68;3.60;;;896.50;1996.80;;;;;;5073002;28;20028;-81
2023/07/04 12:20:51;;;;;;;7.15;4.43;;;896.80;1996.80;;;;;;5077237;28;20066;-80
2023/07/04 12:23:17;;;;;;;9.15;4.85;;;921.60;2022.40;;;;;;5072938;28;20115;-82
2023/07/04 12:25:47;;;;;;;9.38;5.75;;;921.80;1996.80;;;;;;5078030;28;20073;-81
2023/07/04 12:28:15;;;;;;;10.05;4.30;;;922.00;1971.20;;;;;;5121184;27;20020;-80
2023/07/04 12:30:48;;;;;;;6.78;5.53;;;922.00;1945.60;;;;;;5092808;28;20024;-80
2023/07/04 12:33:22;;;;;;;10.10;7.50;;;922.00;1920.00;;;;;;5092939;28;20173;-80
2023/07/04 12:35:59;;;;;;;6.70;4.60;;;921.70;1971.20;;;;;;5094185;28;20071;-81
2023/07/04 12:38:27;;;;;;;7.47;3.55;;;922.00;1971.20;;;;;;5092623;28;20035;-82
2023/07/04 12:40:54;;;;;;;7.55;3.25;;;922.00;1971.20;;;;;;5093999;28;20024;-82
2023/07/04 12:43:21;;;;;;;4.95;3.70;;;922.00;1945.60;;;;;;5093053;28;20035;-80
2023/07/04 12:45:48;;;;;;;5.00;3.30;;;922.00;1945.60;;;;;;5090906;28;20059;-80